Time;durP1;ratioP1;P1;durP2;ratioP2;P2;SDS_P1;SDS_P2;PMS_P1;PMS_P2;Temp;Humidity;BMP_temperature;BMP_pressure;BME280_temperature;BME280_humidity;BME280_pressure;Samples;Min_cycle;Max_cycle;Signal;HPM_P1;HPM_P2
2022/09/23 00:00:41;;;;;;;3.53;2.00;;;11.60;99.90;;;;;;7393436;19;20211;-77
2022/09/23 00:03:08;;;;;;;3.43;2.50;;;11.40;99.90;;;;;;7390417;19;20513;-76
2022/09/23 00:05:34;;;;;;;2.90;2.08;;;11.40;99.90;;;;;;7391047;19;20623;-76
2022/09/23 00:08:00;;;;;;;4.22;2.20;;;11.20;99.90;;;;;;7390577;19;20552;-77
2022/09/23 00:10:30;;;;;;;4.75;2.50;;;11.20;99.90;;;;;;7392125;19;20595;-76
2022/09/23 00:12:57;;;;;;;4.47;2.73;;;11.10;99.90;;;;;;7390081;19;20137;-76
2022/09/23 00:15:24;;;;;;;3.80;2.63;;;11.10;99.90;;;;;;7390612;19;20567;-76
2022/09/23 00:17:53;;;;;;;3.50;2.80;;;11.10;99.90;;;;;;7391741;19;20139;-77
2022/09/23 00:20:19;;;;;;;3.77;2.57;;;10.90;99.90;;;;;;7390260;19;20161;-77
2022/09/23 00:22:45;;;;;;;4.50;2.57;;;11.20;99.90;;;;;;7386963;19;20126;-77
2022/09/23 00:25:11;;;;;;;3.77;2.87;;;11.20;99.90;;;;;;7387742;19;20621;-77
2022/09/23 00:27:38;;;;;;;3.07;2.60;;;11.50;99.90;;;;;;7386935;19;20150;-77
2022/09/23 00:30:07;;;;;;;3.00;2.33;;;11.70;99.90;;;;;;7399126;19;20138;-76
2022/09/23 00:32:33;;;;;;;5.07;2.57;;;11.80;99.90;;;;;;7398731;19;20146;-76
2022/09/23 00:34:59;;;;;;;6.47;3.47;;;12.00;99.90;;;;;;7398498;19;20165;-76
2022/09/23 00:37:27;;;;;;;5.03;3.20;;;12.10;99.90;;;;;;7398044;19;20863;-76
2022/09/23 00:39:54;;;;;;;3.47;2.80;;;12.00;99.90;;;;;;7397755;19;20141;-76
2022/09/23 00:42:22;;;;;;;4.10;2.90;;;11.80;99.90;;;;;;7395632;19;20134;-77
2022/09/23 00:44:55;;;;;;;3.90;2.60;;;11.80;99.90;;;;;;7393337;19;20127;-77
2022/09/23 00:47:28;;;;;;;2.30;2.10;;;11.80;99.90;;;;;;7398232;19;20139;-77
2022/09/23 00:50:21;;;;;;;3.40;2.43;;;11.80;99.90;;;;;;7395839;19;20138;-77
2022/09/23 00:52:49;;;;;;;5.40;2.57;;;11.50;99.90;;;;;;7397695;19;20757;-77
2022/09/23 00:55:26;;;;;;;4.13;2.77;;;11.50;99.90;;;;;;7395509;19;20202;-76
2022/09/23 00:57:57;;;;;;;3.78;2.70;;;11.50;99.90;;;;;;7398378;19;20134;-76
2022/09/23 01:00:23;;;;;;;3.03;2.57;;;11.60;99.90;;;;;;7397269;19;20153;-76
2022/09/23 01:02:50;;;;;;;3.27;2.70;;;11.40;99.90;;;;;;7396786;19;20131;-77
2022/09/23 01:05:17;;;;;;;3.17;2.70;;;11.50;99.90;;;;;;7397331;19;20895;-76
2022/09/23 01:07:44;;;;;;;3.40;2.47;;;11.40;99.90;;;;;;7395921;19;20142;-78
2022/09/23 01:10:12;;;;;;;3.87;2.77;;;11.60;99.90;;;;;;7396724;19;20461;-77
2022/09/23 01:12:56;;;;;;;3.27;2.47;;;11.80;99.90;;;;;;7395648;19;20131;-76
2022/09/23 01:15:47;;;;;;;3.70;2.40;;;11.40;99.90;;;;;;7397118;19;20138;-76
2022/09/23 01:18:33;;;;;;;3.07;2.57;;;11.30;99.90;;;;;;7394676;19;20142;-76
2022/09/23 01:21:29;;;;;;;3.37;2.53;;;11.20;99.90;;;;;;7396740;19;20131;-75
2022/09/23 01:24:26;;;;;;;3.23;2.70;;;10.90;99.90;;;;;;7396509;19;20139;-76
2022/09/23 01:26:57;;;;;;;3.57;2.83;;;10.70;99.90;;;;;;7398150;19;20155;-76
2022/09/23 01:29:28;;;;;;;3.83;2.40;;;10.70;99.90;;;;;;7395305;19;20152;-76
2022/09/23 01:31:58;;;;;;;3.43;2.40;;;10.80;99.90;;;;;;7397765;19;20564;-77
2022/09/23 01:34:29;;;;;;;4.77;2.40;;;11.00;99.90;;;;;;7395775;19;20143;-77
2022/09/23 01:37:10;;;;;;;5.77;2.77;;;11.10;99.90;;;;;;7396492;19;20218;-77
2022/09/23 01:40:14;;;;;;;5.07;2.70;;;11.30;99.90;;;;;;7395779;19;20134;-77
2022/09/23 01:42:58;;;;;;;3.37;2.37;;;11.00;99.90;;;;;;7393769;19;20146;-77
2022/09/23 01:45:37;;;;;;;6.00;2.37;;;10.90;99.90;;;;;;7395315;19;20131;-77
2022/09/23 01:48:20;;;;;;;2.80;2.10;;;10.80;99.90;;;;;;7395567;19;20154;-77
2022/09/23 01:50:57;;;;;;;2.67;2.30;;;11.00;99.90;;;;;;7394458;19;20139;-76
2022/09/23 01:53:38;;;;;;;3.20;2.20;;;10.80;99.90;;;;;;7393476;19;20658;-75
2022/09/23 01:56:14;;;;;;;2.60;2.20;;;10.80;99.90;;;;;;7397330;19;20134;-77
2022/09/23 01:58:47;;;;;;;4.03;2.50;;;10.60;99.90;;;;;;7394624;19;20134;-77
2022/09/23 02:01:22;;;;;;;3.55;2.50;;;10.90;99.90;;;;;;7395386;19;20123;-77
2022/09/23 02:04:23;;;;;;;3.83;2.70;;;10.90;99.90;;;;;;7394839;19;20141;-76
2022/09/23 02:06:57;;;;;;;4.03;2.03;;;10.80;99.90;;;;;;7391665;19;20214;-77
2022/09/23 02:09:29;;;;;;;3.90;2.30;;;11.10;99.90;;;;;;7393463;19;20163;-77
2022/09/23 02:12:04;;;;;;;3.30;2.47;;;10.90;99.90;;;;;;7396025;19;20225;-76
2022/09/23 02:14:46;;;;;;;3.80;2.43;;;10.50;99.90;;;;;;7394117;19;20145;-77
2022/09/23 02:17:16;;;;;;;3.00;2.70;;;10.20;99.90;;;;;;7391942;19;20814;-76
2022/09/23 02:19:50;;;;;;;2.73;2.17;;;10.20;99.90;;;;;;7395001;19;20182;-77
2022/09/23 02:22:22;;;;;;;4.03;2.30;;;10.40;99.90;;;;;;7393258;19;20139;-76
2022/09/23 02:24:48;;;;;;;2.27;2.07;;;10.60;99.90;;;;;;7395060;19;20154;-76
2022/09/23 02:27:42;;;;;;;3.60;2.63;;;10.70;99.90;;;;;;7394165;19;20153;-76
2022/09/23 02:30:16;;;;;;;3.83;2.77;;;11.00;99.90;;;;;;7393911;19;20157;-76
2022/09/23 02:32:48;;;;;;;3.15;2.35;;;11.30;99.90;;;;;;7394197;19;20201;-76
2022/09/23 02:35:40;;;;;;;5.20;2.50;;;11.30;99.90;;;;;;7392849;19;20475;-78
2022/09/23 02:38:36;;;;;;;5.13;2.40;;;11.10;99.90;;;;;;7393348;19;20137;-82
2022/09/23 02:41:25;;;;;;;3.57;2.27;;;10.90;99.90;;;;;;7392278;19;20177;-82
2022/09/23 02:44:02;;;;;;;3.23;2.43;;;10.60;99.90;;;;;;7392551;19;20214;-81
2022/09/23 02:46:31;;;;;;;3.47;2.30;;;10.60;99.90;;;;;;7391675;19;20160;-82
2022/09/23 02:49:12;;;;;;;3.13;2.20;;;10.70;99.90;;;;;;7392771;19;20483;-83
2022/09/23 02:51:39;;;;;;;2.83;2.20;;;10.70;99.90;;;;;;7391888;19;20250;-83
2022/09/23 02:54:09;;;;;;;4.50;2.60;;;10.40;99.90;;;;;;7393366;19;20159;-81
2022/09/23 02:56:36;;;;;;;3.53;2.20;;;10.70;99.90;;;;;;7392937;19;20253;-80
2022/09/23 02:59:05;;;;;;;6.27;2.50;;;10.80;99.90;;;;;;7389972;19;20157;-83
2022/09/23 03:02:03;;;;;;;3.80;2.43;;;10.90;99.90;;;;;;7391216;19;20147;-80
2022/09/23 03:04:50;;;;;;;2.30;2.07;;;10.70;99.90;;;;;;7392967;19;20171;-82
2022/09/23 03:07:47;;;;;;;2.27;2.07;;;10.70;99.90;;;;;;7392871;19;20151;-82
2022/09/23 03:10:30;;;;;;;4.17;2.33;;;10.50;99.90;;;;;;7393026;19;20126;-82
2022/09/23 03:13:51;;;;;;;2.93;2.40;;;10.70;99.90;;;;;;7392593;19;20149;-82
2022/09/23 03:16:20;;;;;;;2.90;2.27;;;10.80;99.90;;;;;;7391702;19;20212;-82
2022/09/23 03:19:12;;;;;;;4.53;2.37;;;10.70;99.90;;;;;;7389144;19;20135;-83
2022/09/23 03:21:48;;;;;;;2.40;2.17;;;10.50;99.90;;;;;;7390960;19;20139;-83
2022/09/23 03:24:14;;;;;;;3.23;2.30;;;10.40;99.90;;;;;;7392662;19;20211;-81
2022/09/23 03:26:45;;;;;;;2.90;2.23;;;10.70;99.90;;;;;;7391246;19;20154;-82
2022/09/23 03:29:11;;;;;;;2.40;2.20;;;11.20;99.90;;;;;;7392023;19;20624;-82
2022/09/23 03:31:40;;;;;;;3.23;2.33;;;11.10;99.90;;;;;;7392056;19;20142;-82
2022/09/23 03:34:15;;;;;;;2.80;2.47;;;10.70;99.90;;;;;;7388803;19;20139;-81
2022/09/23 03:37:06;;;;;;;3.30;2.40;;;10.80;99.90;;;;;;7392105;19;20134;-79
2022/09/23 03:39:43;;;;;;;2.70;2.13;;;10.60;99.90;;;;;;7390122;19;20149;-82
2022/09/23 03:42:19;;;;;;;5.07;2.47;;;10.60;99.90;;;;;;7392826;19;20138;-81
2022/09/23 03:44:47;;;;;;;5.37;2.50;;;11.00;99.90;;;;;;7391512;19;20602;-81
2022/09/23 03:47:15;;;;;;;4.33;2.57;;;11.20;99.90;;;;;;7391079;19;20134;-82
2022/09/23 03:49:47;;;;;;;2.93;2.23;;;11.30;99.90;;;;;;7390754;19;20153;-82
2022/09/23 03:52:14;;;;;;;2.50;2.30;;;11.20;99.90;;;;;;7392194;19;20142;-81
2022/09/23 03:54:40;;;;;;;2.43;2.20;;;11.00;99.90;;;;;;7389757;19;20769;-80
2022/09/23 03:57:06;;;;;;;3.20;2.60;;;10.90;99.90;;;;;;7390831;19;20147;-82
2022/09/23 03:59:32;;;;;;;4.30;2.20;;;10.50;99.90;;;;;;7390901;19;20127;-82
2022/09/23 04:01:58;;;;;;;3.93;2.60;;;10.20;99.90;;;;;;7387205;19;20134;-81
2022/09/23 04:04:28;;;;;;;3.30;2.17;;;10.30;99.90;;;;;;7389680;19;20135;-81
2022/09/23 04:06:55;;;;;;;2.83;2.33;;;10.30;99.90;;;;;;7389927;19;20150;-83
2022/09/23 04:09:21;;;;;;;3.10;1.93;;;10.60;99.90;;;;;;7390782;19;20253;-83
2022/09/23 04:11:48;;;;;;;3.83;2.50;;;10.40;99.90;;;;;;7389366;19;20135;-81
2022/09/23 04:14:14;;;;;;;4.40;2.83;;;10.60;99.90;;;;;;7389751;19;20146;-80
2022/09/23 04:16:40;;;;;;;3.77;3.07;;;10.90;99.90;;;;;;7389894;19;20138;-82
2022/09/23 04:19:06;;;;;;;4.17;2.70;;;10.90;99.90;;;;;;7389256;19;20160;-82
2022/09/23 04:21:32;;;;;;;4.77;2.60;;;10.60;99.90;;;;;;7389385;19;20143;-81
2022/09/23 04:23:57;;;;;;;4.57;3.00;;;10.50;99.90;;;;;;7389384;19;20130;-82
2022/09/23 04:26:23;;;;;;;4.10;2.53;;;10.60;99.90;;;;;;7390077;19;20129;-82
2022/09/23 04:28:49;;;;;;;4.33;2.50;;;10.50;99.90;;;;;;7388036;19;20135;-81
2022/09/23 04:31:16;;;;;;;4.20;2.20;;;10.40;99.90;;;;;;7390628;19;20119;-82
2022/09/23 04:33:42;;;;;;;3.37;2.30;;;10.70;99.90;;;;;;7388560;19;20146;-82
2022/09/23 04:36:08;;;;;;;3.73;2.40;;;10.70;99.90;;;;;;7388346;19;20146;-82
2022/09/23 04:38:33;;;;;;;3.10;2.50;;;10.80;99.90;;;;;;7390440;19;20157;-80
2022/09/23 04:40:59;;;;;;;4.17;2.47;;;10.70;99.90;;;;;;7388788;19;20146;-83
2022/09/23 04:43:25;;;;;;;3.43;2.90;;;10.70;99.90;;;;;;7391411;19;20486;-81
2022/09/23 04:46:02;;;;;;;3.20;2.30;;;10.50;99.90;;;;;;7389816;19;20135;-81
2022/09/23 04:48:28;;;;;;;3.40;2.70;;;10.80;99.90;;;;;;7387862;19;20146;-83
2022/09/23 04:51:00;;;;;;;4.47;2.60;;;10.40;99.90;;;;;;7388477;19;20151;-81
2022/09/23 04:53:27;;;;;;;4.67;2.50;;;10.30;99.90;;;;;;7386466;19;20499;-81
2022/09/23 04:55:54;;;;;;;3.10;2.53;;;10.60;99.90;;;;;;7389461;19;20131;-81
2022/09/23 04:58:21;;;;;;;4.73;2.60;;;10.70;99.90;;;;;;7387743;19;20142;-82
2022/09/23 05:00:47;;;;;;;3.83;2.63;;;10.50;99.90;;;;;;7386856;19;20131;-82
2022/09/23 05:03:13;;;;;;;2.90;2.50;;;10.50;99.90;;;;;;7388238;19;20131;-83
2022/09/23 05:05:39;;;;;;;3.63;2.77;;;10.30;99.90;;;;;;7388229;19;20170;-84
2022/09/23 05:08:05;;;;;;;2.90;2.57;;;10.10;99.90;;;;;;7387972;19;20584;-84
2022/09/23 05:10:31;;;;;;;5.60;3.10;;;9.90;99.90;;;;;;7389314;19;20134;-86
2022/09/23 05:12:58;;;;;;;3.53;2.77;;;9.90;99.90;;;;;;7388487;19;20127;-84
2022/09/23 05:15:23;;;;;;;6.73;2.77;;;10.00;99.90;;;;;;7395425;19;20157;-84
2022/09/23 05:17:49;;;;;;;5.47;2.70;;;10.00;99.90;;;;;;7394747;19;20138;-84
2022/09/23 05:20:16;;;;;;;5.90;2.90;;;10.10;99.90;;;;;;7395601;19;20135;-85
2022/09/23 05:22:41;;;;;;;2.60;2.40;;;10.20;99.90;;;;;;7395153;19;20147;-82
2022/09/23 05:25:07;;;;;;;3.27;2.70;;;10.00;99.90;;;;;;7400188;19;20150;-84
2022/09/23 05:27:33;;;;;;;3.37;2.60;;;10.10;99.90;;;;;;7395872;19;20222;-83
2022/09/23 05:29:59;;;;;;;5.53;2.67;;;10.20;99.90;;;;;;7395653;19;20138;-84
2022/09/23 05:32:26;;;;;;;4.00;2.60;;;9.80;99.90;;;;;;7395946;19;20158;-86
2022/09/23 05:34:54;;;;;;;2.87;2.53;;;9.60;99.90;;;;;;7396147;19;20135;-84
2022/09/23 05:37:20;;;;;;;4.03;2.63;;;9.90;99.90;;;;;;7394189;19;20130;-84
2022/09/23 05:39:46;;;;;;;4.33;2.87;;;10.10;99.90;;;;;;7394785;19;20147;-83
2022/09/23 05:42:12;;;;;;;3.95;3.05;;;10.20;99.90;;;;;;7394696;19;21038;-83
2022/09/23 05:44:38;;;;;;;4.53;3.57;;;10.30;99.90;;;;;;7396954;19;20588;-80
2022/09/23 05:47:04;;;;;;;6.20;3.23;;;10.40;99.90;;;;;;7392221;19;20947;-82
2022/09/23 05:49:30;;;;;;;3.00;2.70;;;10.40;99.90;;;;;;7387752;19;20153;-81
2022/09/23 05:51:56;;;;;;;3.30;2.80;;;10.40;99.90;;;;;;7390481;19;20544;-81
2022/09/23 05:54:21;;;;;;;3.77;2.80;;;10.60;99.90;;;;;;7392821;19;20123;-82
2022/09/23 05:56:47;;;;;;;4.50;2.73;;;10.60;99.90;;;;;;7393074;19;20145;-81
2022/09/23 05:59:13;;;;;;;4.67;3.10;;;10.90;99.90;;;;;;7393458;19;20154;-82
2022/09/23 06:01:39;;;;;;;3.47;3.07;;;11.00;99.90;;;;;;7393629;19;20153;-80
2022/09/23 06:04:06;;;;;;;4.07;2.90;;;11.20;99.90;;;;;;7395562;19;20134;-80
2022/09/23 06:06:36;;;;;;;4.83;2.50;;;11.30;99.90;;;;;;7396174;19;20349;-83
2022/09/23 06:09:03;;;;;;;3.47;2.97;;;11.30;99.90;;;;;;7395422;19;20169;-82
2022/09/23 06:11:30;;;;;;;6.80;3.50;;;11.40;99.90;;;;;;7396389;19;20231;-81
2022/09/23 06:14:01;;;;;;;4.30;3.27;;;11.50;99.90;;;;;;7394304;19;20143;-81
2022/09/23 06:16:28;;;;;;;4.47;3.17;;;11.40;99.90;;;;;;7395695;19;20163;-81
2022/09/23 06:18:54;;;;;;;5.43;3.60;;;11.40;99.90;;;;;;7393288;19;20151;-81
2022/09/23 06:21:23;;;;;;;7.97;3.77;;;11.20;99.90;;;;;;7395424;19;20145;-81
2022/09/23 06:23:51;;;;;;;4.40;3.57;;;11.30;99.90;;;;;;7394730;19;20157;-80
2022/09/23 06:26:16;;;;;;;4.90;3.57;;;11.40;99.90;;;;;;7393671;19;20143;-81
2022/09/23 06:28:44;;;;;;;6.30;4.23;;;11.40;99.90;;;;;;7393834;19;20143;-82
2022/09/23 06:31:13;;;;;;;4.57;3.80;;;11.40;99.90;;;;;;7394551;19;20139;-82
2022/09/23 06:33:41;;;;;;;4.30;3.57;;;11.40;99.90;;;;;;7392270;19;20150;-82
2022/09/23 06:36:08;;;;;;;5.33;3.97;;;11.50;99.90;;;;;;7396379;19;20147;-81
2022/09/23 06:38:37;;;;;;;5.43;3.83;;;11.50;99.90;;;;;;7392636;19;20156;-81
2022/09/23 06:41:03;;;;;;;5.07;4.03;;;11.70;99.90;;;;;;7395347;19;20595;-83
2022/09/23 06:43:29;;;;;;;6.97;5.37;;;11.70;99.90;;;;;;7394555;19;20214;-81
2022/09/23 06:45:59;;;;;;;4.53;4.03;;;11.60;99.90;;;;;;7394275;19;20257;-81
2022/09/23 06:48:27;;;;;;;4.87;3.70;;;11.60;99.90;;;;;;7390981;19;20609;-82
2022/09/23 06:50:53;;;;;;;4.87;3.73;;;11.60;99.90;;;;;;7392884;19;20159;-82
2022/09/23 06:53:23;;;;;;;4.43;3.80;;;11.60;99.90;;;;;;7392776;19;20134;-81
2022/09/23 06:56:05;;;;;;;5.93;3.63;;;11.60;99.90;;;;;;7392105;19;20138;-81
2022/09/23 06:58:32;;;;;;;5.27;4.00;;;11.70;99.90;;;;;;7394088;19;20138;-81
2022/09/23 07:01:05;;;;;;;5.97;3.70;;;11.70;99.90;;;;;;7394812;19;20160;-81
2022/09/23 07:03:34;;;;;;;9.53;4.40;;;11.70;99.90;;;;;;7394038;19;20158;-83
2022/09/23 07:06:02;;;;;;;11.03;5.40;;;11.80;99.90;;;;;;7394844;19;20635;-81
2022/09/23 07:08:29;;;;;;;14.37;4.30;;;12.00;99.90;;;;;;7388915;19;20162;-80
2022/09/23 07:10:59;;;;;;;5.50;3.50;;;12.00;99.90;;;;;;7391710;19;20137;-81
2022/09/23 07:13:26;;;;;;;5.13;3.60;;;12.00;99.90;;;;;;7390144;19;20179;-80
2022/09/23 07:15:57;;;;;;;9.00;3.97;;;12.00;99.90;;;;;;7396051;19;20165;-81
2022/09/23 07:18:25;;;;;;;5.00;3.63;;;12.00;99.90;;;;;;7393114;19;20150;-82
2022/09/23 07:20:58;;;;;;;5.90;3.67;;;12.00;99.90;;;;;;7393772;19;20159;-82
2022/09/23 07:23:24;;;;;;;4.60;3.97;;;12.10;99.90;;;;;;7393606;19;20146;-82
2022/09/23 07:25:51;;;;;;;9.57;4.57;;;12.10;99.90;;;;;;7393270;19;20161;-83
2022/09/23 07:28:20;;;;;;;7.63;4.10;;;12.20;99.90;;;;;;7392622;19;20160;-82
2022/09/23 07:30:46;;;;;;;5.53;3.50;;;12.30;99.90;;;;;;7397348;19;20510;-81
2022/09/23 07:33:12;;;;;;;5.23;4.00;;;12.30;99.90;;;;;;7397640;19;20130;-83
2022/09/23 07:35:39;;;;;;;5.50;3.80;;;12.40;99.90;;;;;;7396642;19;20817;-81
2022/09/23 07:38:10;;;;;;;6.63;4.00;;;12.50;99.90;;;;;;7393047;19;20921;-80
2022/09/23 07:40:37;;;;;;;7.33;3.67;;;12.70;99.90;;;;;;7393385;19;20222;-81
2022/09/23 07:43:05;;;;;;;5.77;3.37;;;12.90;99.90;;;;;;7395619;19;20138;-82
2022/09/23 07:45:32;;;;;;;5.87;3.33;;;13.00;99.90;;;;;;7392094;19;20146;-82
2022/09/23 07:47:59;;;;;;;6.80;3.70;;;12.90;99.90;;;;;;7393309;19;20210;-81
2022/09/23 07:50:25;;;;;;;5.63;3.73;;;13.10;99.90;;;;;;7392700;19;20146;-80
2022/09/23 07:52:53;;;;;;;5.57;3.27;;;13.10;99.90;;;;;;7395334;19;20141;-80
2022/09/23 07:55:19;;;;;;;8.80;3.53;;;13.20;99.90;;;;;;7395039;19;20161;-81
2022/09/23 07:57:45;;;;;;;5.67;3.50;;;13.20;99.90;;;;;;7392158;19;20142;-81
2022/09/23 08:00:12;;;;;;;5.27;3.47;;;13.20;99.90;;;;;;7390932;19;20523;-81
2022/09/23 08:02:41;;;;;;;4.77;3.70;;;13.10;99.90;;;;;;7390551;19;20146;-79
2022/09/23 08:05:08;;;;;;;5.60;3.43;;;13.30;99.90;;;;;;7391958;19;20155;-81
2022/09/23 08:07:34;;;;;;;4.37;3.30;;;13.30;99.90;;;;;;7391677;19;20138;-80
2022/09/23 08:10:01;;;;;;;4.65;3.10;;;13.50;99.90;;;;;;7397436;19;20139;-82
2022/09/23 08:12:31;;;;;;;5.03;3.20;;;13.60;99.90;;;;;;7395150;19;20161;-80
2022/09/23 08:14:58;;;;;;;7.30;3.70;;;13.70;99.90;;;;;;7394811;19;20966;-81
2022/09/23 08:17:24;;;;;;;7.50;3.57;;;13.80;99.90;;;;;;7394417;19;20616;-82
2022/09/23 08:19:49;;;;;;;3.63;3.17;;;13.90;99.90;;;;;;7393040;19;20138;-83
2022/09/23 08:22:16;;;;;;;4.10;3.20;;;13.90;99.90;;;;;;7404970;19;20169;-81
2022/09/23 08:24:42;;;;;;;4.23;3.33;;;14.00;99.90;;;;;;7399368;19;20218;-81
2022/09/23 08:27:09;;;;;;;4.83;3.10;;;14.10;99.90;;;;;;7392929;19;20171;-81
2022/09/23 08:29:34;;;;;;;3.73;3.27;;;14.10;99.90;;;;;;7392868;19;20145;-81
2022/09/23 08:32:00;;;;;;;8.43;4.13;;;14.10;99.90;;;;;;7398522;19;20138;-81
2022/09/23 08:34:27;;;;;;;6.00;3.43;;;14.20;99.90;;;;;;7389354;19;20198;-80
2022/09/23 08:36:53;;;;;;;4.40;3.13;;;14.20;99.90;;;;;;7404851;19;20175;-80
2022/09/23 08:39:19;;;;;;;3.38;2.63;;;14.30;99.90;;;;;;7391684;19;20151;-81
2022/09/23 08:41:51;;;;;;;4.47;3.00;;;14.40;99.90;;;;;;7389151;19;20167;-81
2022/09/23 08:44:36;;;;;;;5.17;3.13;;;14.40;99.90;;;;;;7390748;19;20149;-80
2022/09/23 08:47:29;;;;;;;4.78;2.95;;;14.50;99.90;;;;;;7391016;19;20157;-80
2022/09/23 08:50:37;;;;;;;4.75;3.08;;;14.60;99.90;;;;;;7391872;19;20142;-81
2022/09/23 08:53:10;;;;;;;5.35;3.15;;;14.60;99.90;;;;;;7396643;19;20142;-81
2022/09/23 08:55:46;;;;;;;4.28;3.13;;;14.60;99.90;;;;;;7396591;19;20167;-81
2022/09/23 08:58:34;;;;;;;4.00;3.15;;;14.70;99.90;;;;;;7400835;19;20138;-82
2022/09/23 09:01:18;;;;;;;2.63;2.42;;;14.70;99.90;;;;;;7399320;19;20138;-82
2022/09/23 09:03:53;;;;;;;4.60;2.90;;;14.70;99.90;;;;;;7397399;19;20157;-81
2022/09/23 09:06:59;;;;;;;4.00;2.78;;;14.80;99.90;;;;;;7397079;19;20141;-81
2022/09/23 09:09:31;;;;;;;4.07;2.60;;;14.80;99.90;;;;;;7393036;19;20138;-80
2022/09/23 09:12:17;;;;;;;3.97;2.70;;;14.90;99.90;;;;;;7396887;19;20735;-82
2022/09/23 09:14:56;;;;;;;8.67;3.33;;;14.90;99.90;;;;;;7395866;19;20210;-81
2022/09/23 09:17:44;;;;;;;6.40;3.25;;;15.00;99.90;;;;;;7398431;19;20231;-81
2022/09/23 09:20:28;;;;;;;4.45;3.50;;;15.20;99.90;;;;;;7393556;19;20142;-81
2022/09/23 09:22:56;;;;;;;5.65;3.60;;;15.40;99.90;;;;;;7395736;19;20496;-80
2022/09/23 09:25:22;;;;;;;5.40;3.53;;;15.30;99.90;;;;;;7394496;19;20891;-80
2022/09/23 09:27:49;;;;;;;7.75;3.75;;;15.20;99.90;;;;;;7396870;19;20243;-79
2022/09/23 09:30:16;;;;;;;4.80;3.05;;;15.50;99.90;;;;;;7395759;19;20893;-81
2022/09/23 09:33:02;;;;;;;5.15;3.08;;;15.50;99.90;;;;;;7396198;19;20165;-80
2022/09/23 09:35:58;;;;;;;4.47;2.95;;;15.60;99.90;;;;;;7398002;19;20149;-80
2022/09/23 09:38:26;;;;;;;5.90;2.90;;;15.60;99.90;;;;;;7403354;19;20159;-80
2022/09/23 09:40:58;;;;;;;11.27;5.50;;;15.60;99.90;;;;;;7396190;19;20134;-81
2022/09/23 09:43:24;;;;;;;8.25;4.63;;;15.60;99.90;;;;;;7397089;19;20155;-80
2022/09/23 09:45:58;;;;;;;4.75;3.25;;;15.80;99.90;;;;;;7394730;19;20518;-80
2022/09/23 09:48:37;;;;;;;5.20;2.88;;;15.90;99.90;;;;;;7396009;19;20143;-79
2022/09/23 09:51:40;;;;;;;4.93;3.03;;;15.80;99.90;;;;;;7394480;19;20138;-79
2022/09/23 09:54:26;;;;;;;5.43;3.38;;;15.90;99.90;;;;;;7392591;19;20138;-81
2022/09/23 09:56:53;;;;;;;4.45;3.30;;;16.10;99.90;;;;;;7401905;19;20142;-81
2022/09/23 09:59:26;;;;;;;6.10;3.45;;;16.20;99.90;;;;;;7395373;19;20143;-80
2022/09/23 10:02:21;;;;;;;5.10;3.28;;;16.30;99.90;;;;;;7394700;19;20150;-82
2022/09/23 10:04:58;;;;;;;6.15;2.88;;;16.40;99.90;;;;;;7393844;19;20139;-82
2022/09/23 10:07:27;;;;;;;6.43;3.15;;;16.40;99.90;;;;;;7397401;19;20186;-83
2022/09/23 10:09:53;;;;;;;3.92;2.67;;;16.40;99.90;;;;;;7394425;19;20166;-83
2022/09/23 10:12:24;;;;;;;4.55;2.67;;;16.40;99.90;;;;;;7397498;19;20134;-83
2022/09/23 10:14:54;;;;;;;4.80;2.80;;;16.50;99.90;;;;;;7398856;19;20131;-82
2022/09/23 10:17:32;;;;;;;3.85;2.65;;;16.50;99.90;;;;;;7406186;19;20625;-81
2022/09/23 10:20:08;;;;;;;8.68;2.67;;;16.50;99.90;;;;;;7394814;19;20130;-82
2022/09/23 10:22:38;;;;;;;3.85;2.65;;;16.50;99.90;;;;;;7393652;19;20177;-82
2022/09/23 10:25:23;;;;;;;4.32;2.72;;;16.60;99.90;;;;;;7393608;19;20135;-82
2022/09/23 10:27:49;;;;;;;3.35;2.22;;;16.80;99.90;;;;;;7393643;19;20138;-80
2022/09/23 10:30:22;;;;;;;3.65;2.50;;;16.90;99.90;;;;;;7396804;19;20155;-81
2022/09/23 10:32:50;;;;;;;3.25;2.45;;;16.80;99.90;;;;;;7397108;19;20131;-81
2022/09/23 10:35:22;;;;;;;4.75;2.60;;;16.80;99.90;;;;;;7391786;19;20579;-82
2022/09/23 10:37:56;;;;;;;5.65;2.85;;;16.90;99.90;;;;;;7392711;19;20139;-82
2022/09/23 10:46:40;;;;;;;3.30;2.47;;;16.90;99.90;;;;;;7394211;19;20218;-84
2022/09/23 10:49:30;;;;;;;2.58;2.15;;;17.10;99.90;;;;;;7393614;19;20145;-82
2022/09/23 10:52:21;;;;;;;3.05;2.40;;;17.20;99.90;;;;;;7394150;19;20143;-82
2022/09/23 10:55:05;;;;;;;3.10;2.58;;;17.30;99.90;;;;;;7393202;19;20459;-82
2022/09/23 10:57:43;;;;;;;4.90;2.42;;;17.70;99.90;;;;;;7393310;19;20131;-82
2022/09/23 11:00:14;;;;;;;4.93;2.40;;;17.80;99.90;;;;;;7402144;19;20142;-82
2022/09/23 11:02:54;;;;;;;3.25;2.45;;;17.90;99.90;;;;;;7392353;19;20636;-81
2022/09/23 11:05:29;;;;;;;5.05;2.67;;;17.90;99.90;;;;;;7390568;19;20158;-81
2022/09/23 11:08:02;;;;;;;4.45;3.08;;;17.90;99.90;;;;;;7391218;19;20621;-84
2022/09/23 11:11:10;;;;;;;4.93;2.50;;;18.00;99.90;;;;;;7389895;19;20506;-80
2022/09/23 11:13:39;;;;;;;3.70;2.58;;;18.00;99.90;;;;;;7390571;19;20215;-81
2022/09/23 11:16:30;;;;;;;3.25;2.50;;;18.00;99.90;;;;;;7392637;19;20127;-81
2022/09/23 11:19:07;;;;;;;7.05;2.60;;;18.20;99.90;;;;;;7389023;19;20146;-81
2022/09/23 11:22:10;;;;;;;3.58;2.25;;;18.20;99.90;;;;;;7391665;19;20130;-84
2022/09/23 11:25:03;;;;;;;5.00;2.22;;;18.30;99.90;;;;;;7406308;19;20161;-81
2022/09/23 11:27:40;;;;;;;3.50;2.88;;;18.40;99.90;;;;;;7390589;19;20155;-84
2022/09/23 11:30:13;;;;;;;8.60;5.80;;;18.40;99.90;;;;;;7391675;19;20130;-83
2022/09/23 11:33:13;;;;;;;4.55;1.83;;;18.40;99.90;;;;;;7389730;19;20227;-83
2022/09/23 11:35:49;;;;;;;3.22;2.28;;;18.40;99.90;;;;;;7392015;19;20151;-82
2022/09/23 11:38:24;;;;;;;2.88;2.00;;;18.50;99.90;;;;;;7391546;19;20138;-82
2022/09/23 11:40:57;;;;;;;5.38;2.60;;;18.60;99.90;;;;;;7390843;19;20130;-82
2022/09/23 11:43:31;;;;;;;4.43;1.90;;;18.50;99.90;;;;;;7392001;19;20614;-84
2022/09/23 11:46:16;;;;;;;2.08;1.70;;;18.60;99.90;;;;;;7397355;19;20134;-83
2022/09/23 11:48:48;;;;;;;2.30;1.80;;;18.60;99.90;;;;;;7389389;19;20157;-84
2022/09/23 11:51:27;;;;;;;2.88;1.85;;;18.60;99.90;;;;;;7391239;19;20130;-83
2022/09/23 11:53:56;;;;;;;2.40;1.70;;;18.70;99.90;;;;;;7390237;19;20701;-85
2022/09/23 11:56:34;;;;;;;3.55;1.60;;;18.60;99.90;;;;;;7391258;19;20142;-84
2022/09/23 11:59:05;;;;;;;2.35;1.85;;;18.70;99.90;;;;;;7389146;19;20146;-84
2022/09/23 12:01:37;;;;;;;2.78;1.63;;;18.70;99.90;;;;;;7390832;19;20150;-84
2022/09/23 12:04:17;;;;;;;2.67;2.15;;;18.70;99.90;;;;;;7390698;19;20131;-81
2022/09/23 12:06:50;;;;;;;2.97;1.70;;;18.70;99.90;;;;;;7390097;19;20860;-84
2022/09/23 12:09:35;;;;;;;3.17;1.70;;;18.80;99.90;;;;;;7390009;19;20142;-83
2022/09/23 12:12:32;;;;;;;2.60;2.00;;;19.00;99.90;;;;;;7389516;19;20148;-83
2022/09/23 12:15:02;;;;;;;1.75;1.65;;;19.10;99.90;;;;;;7387484;19;20146;-82
2022/09/23 12:18:10;;;;;;;2.15;1.70;;;19.10;99.90;;;;;;7388879;19;20142;-84
2022/09/23 12:21:15;;;;;;;4.50;1.85;;;19.20;99.90;;;;;;7387683;19;20181;-83
2022/09/23 12:23:55;;;;;;;2.67;1.95;;;19.50;99.90;;;;;;7386878;19;20137;-82
2022/09/23 12:26:24;;;;;;;3.10;2.50;;;19.40;99.90;;;;;;7398290;19;20130;-82
2022/09/23 12:28:53;;;;;;;3.58;2.30;;;19.40;99.90;;;;;;7398642;19;20145;-81
2022/09/23 12:31:29;;;;;;;2.85;2.25;;;19.30;99.90;;;;;;7397822;19;20162;-81
2022/09/23 12:33:57;;;;;;;2.50;2.15;;;19.30;99.90;;;;;;7394200;19;20145;-81
2022/09/23 12:36:35;;;;;;;5.88;2.60;;;19.30;99.90;;;;;;7403854;19;20134;-82
2022/09/23 12:39:26;;;;;;;1.67;1.58;;;19.30;99.90;;;;;;7397257;19;20850;-83
2022/09/23 12:42:29;;;;;;;3.33;2.22;;;19.30;99.90;;;;;;7394160;19;20155;-82
2022/09/23 12:45:15;;;;;;;2.83;1.98;;;19.40;99.90;;;;;;7398083;19;20477;-81
2022/09/23 12:47:41;;;;;;;3.10;2.30;;;19.60;99.90;;;;;;7398869;19;20165;-81
2022/09/23 12:50:52;;;;;;;4.47;2.80;;;19.70;99.90;;;;;;7397684;19;20142;-82
2022/09/23 12:53:32;;;;;;;4.00;2.65;;;19.60;99.90;;;;;;7394215;19;20150;-81
2022/09/23 12:56:17;;;;;;;4.03;2.28;;;19.60;99.90;;;;;;7397538;19;20158;-82
2022/09/23 12:58:46;;;;;;;3.58;2.20;;;19.50;99.90;;;;;;7394149;19;20214;-82
2022/09/23 13:01:15;;;;;;;3.65;2.50;;;19.50;99.90;;;;;;7398435;19;20149;-81
2022/09/23 13:06:57;;;;;;;5.88;3.17;;;19.50;99.90;;;;;;7398211;19;20406;-77
2022/09/23 13:09:29;;;;;;;4.88;3.20;;;19.40;99.90;;;;;;7394841;19;20395;-81
2022/09/23 13:12:02;;;;;;;4.00;3.13;;;19.50;99.90;;;;;;7399338;19;20142;-82
2022/09/23 13:14:31;;;;;;;5.18;3.00;;;19.40;99.90;;;;;;7392837;19;20150;-82
2022/09/23 13:16:58;;;;;;;4.43;2.40;;;19.30;99.90;;;;;;7398874;19;20157;-86
2022/09/23 13:19:26;;;;;;;4.43;2.78;;;19.40;99.90;;;;;;7398780;19;20250;-83
2022/09/23 13:21:52;;;;;;;3.33;2.53;;;19.60;99.90;;;;;;7395744;19;20138;-84
2022/09/23 13:24:29;;;;;;;4.63;2.80;;;19.50;99.90;;;;;;7396229;19;20511;-83
2022/09/23 13:27:09;;;;;;;3.08;2.72;;;19.50;99.90;;;;;;7397715;19;20153;-84
2022/09/23 13:29:56;;;;;;;4.18;2.58;;;19.50;99.90;;;;;;7395589;19;20157;-84